Historyczne dane pomiarowe

Dodano dane terminowe – wersja testowa.

Dane z okresu 1951-2019

Wersja bazy: 1.34 [2019-03-16, lista zmian], aktualizacja planowana na 2019-04-15

Dane meteo z obszaru Polski uzyskane na podstawie danych udostępnionych przez Instytut Meteorologii i Gospodarki Wodnej – Państwowy Instytut Badawczy.

 

Wybierz Datę:    

       

TemperaturaWilgotnośćWiatrCiśnienieOpadyŚniegCzas trwania zjawisk
 Stacja t tx tn tng RH VA  wxwx mslp ppp RRR   cm mm wxwxwxwxwxwxwx
1994-08-14 15.4 19.4 13.1 11.4 68.3- 2.3 1.7---- 0.0------------
1994-08-13 17.5 21.9 15.6 13.5 75.3- 6.3 1.0---- 0.0------------
1994-08-12 16.8 20.6 15.6 11.2 81.8- 7.7 1.3---- 5.5------------
1994-08-11 20.3 27.2 17.7 14.9 85.5- 6.0 1.7---- 0.7------------
1994-08-10 20.9 27.8 13.6 10.7 79.3- 1.0 2.3---- 6.7------------
1994-08-09 18.1 20.1 17.1 15.0 91.3- 5.7 2.0---- 12.8------------
1994-08-08 20.7 27.2 17.7 15.5 83.5- 7.0 1.3---- 1.9------------
1994-08-07 22.9 30.6 17.8 14.0 72.5- 4.0 1.3---- 3.8------------
1994-08-06 24.1 32.8 18.4 14.3 60.3- 3.7 1.3---- 0.9------------
1994-08-05 23.2 30.4 16.1 11.6 67.8- 1.0 1.3---- 0.0------------
1994-08-04 22.4 29.0 16.0 12.4 67.5- 1.0 1.3---- 0.0------------
1994-08-03 23.2 28.3 16.2 12.7 73.8- 5.3 1.7---- 0.6------------
1994-08-02 23.2 26.4 19.6 15.9 67.3- 7.3 1.7---- 0.0------------
1994-08-01 26.6 34.9 21.1 16.4 50.0- 4.7 1.0---- 0.7------------
1994-07-31 26.3 34.0 18.6 12.0 53.0- 0.7 1.3---- 0.0------------
1994-07-30 25.9 34.3 17.2 13.1 49.8- 0.7 1.0---- 0.0------------
1994-07-29 24.8 32.7 17.0 12.1 50.8- 0.3 2.0---- 0.0------------
1994-07-28 24.8 32.3 16.2 12.5 55.3- 2.0 1.3---- 0.0------------
1994-07-27 25.0 32.3 17.6 12.6 58.0- 0.0 2.0---- 0.0------------
1994-07-26 24.0 31.5 16.7 12.2 56.8- 2.3 1.3---- 0.0------------
1994-07-25 23.1 30.4 15.8 10.8 59.8- 1.0 1.0---- 0.0------------
1994-07-24 21.7 29.3 12.5 8.6 57.0- 1.3 1.0---- 0.0------------
1994-07-23 20.5 27.4 12.4 7.3 59.5- 0.7 1.0---- 0.0------------
1994-07-22 20.7 27.6 11.9 11.4 59.5- 0.0 1.3---- 0.0------------
1994-07-21 18.5 25.4 10.4 6.1 59.3- 0.0 1.0---- 0.0------------
1994-07-20 18.4 22.6 13.5 9.0 65.0- 1.7 1.3---- 0.0------------
1994-07-19 19.1 23.2 15.4 11.8 80.0- 5.7 1.7---- 0.0------------
1994-07-18 20.2 25.5 16.0 12.2 82.8- 6.0 1.3---- 0.0------------
1994-07-17 20.8 27.9 14.6 14.4 75.0- 3.0 1.7---- 8.8------------
1994-07-16 20.4 27.7 16.0 11.4 78.8- 2.7 1.3---- 6.8------------
1994-07-15 21.3 26.5 14.3 9.5 72.5- 4.0 1.3---- 0.0------------
1994-07-14 22.1 27.9 13.2 9.0 64.3- 1.7 1.0---- 0.0------------
1994-07-13 20.9 26.1 13.1 9.9 69.0- 3.0 1.0---- 0.0------------
1994-07-12 20.1 24.4 12.8 7.8 81.5- 0.7 1.3---- 0.0------------
1994-07-11 18.2 24.4 11.4 6.9 75.3- 6.0 1.7---- 0.0------------
1994-07-10 15.4 19.6 12.8 11.2 84.0- 5.3 0.7---- 6.2------------
1994-07-09 15.8 18.2 13.2 9.5 79.5- 8.0 0.7---- 12.6------------
1994-07-08 16.6 19.6 13.7 8.8 67.3- 4.3 1.7---- 0.0------------
1994-07-07 17.5 24.6 13.1 7.6 80.8- 6.7 1.0---- 10.5------------
1994-07-06 19.3 25.0 12.4 9.6 67.5- 1.3 0.7---- 0.0------------
1994-07-05 20.7 25.5 15.3 8.6 71.0- 6.7 0.3---- 0.0------------
1994-07-04 21.4 29.0 12.4 4.6 58.0- 0.3 1.7---- 0.0------------
1994-07-03 19.3 26.4 11.7 3.6 62.0- 0.0 1.3---- 0.0------------
1994-07-02 18.4 24.4 10.0 4.6 64.5- 0.0 1.3---- 0.0------------
1994-07-01 18.4 23.1 15.8 10.7 70.5- 2.7 1.0---- 0.0------------
1994-06-30 21.1 27.9 18.3 15.2 83.0- 6.0 1.7---- 0.0------------
1994-06-29 24.7 30.2 17.0 11.5 72.8- 1.7 0.7---- 0.0------------
1994-06-28 24.4 29.4 18.8 13.5 77.8- 5.0 1.3---- 0.0------------
1994-06-27 25.1 30.9 19.5 13.0 70.8- 1.3 1.7---- 0.0------------
1994-06-26 22.8 29.2 13.1 6.3 52.5- 0.0 1.3---- 0.0------------
1994-06-25 17.0 23.2 6.3 1.2 64.0- 0.0 1.0---- 0.0------------
1994-06-24 14.8 20.1 6.1 1.5 63.8- 0.3 1.3---- 0.0------------
1994-06-23 17.0 23.9 14.5 12.3 72.8- 5.7 1.0---- 0.0------------
1994-06-22 19.6 25.6 10.9 6.1 63.8- 2.7 2.0---- 0.0------------
1994-06-21 14.9 20.3 8.1 3.4 74.8- 1.3 1.0---- 0.0------------
1994-06-20 16.4 23.8 10.3 5.9 74.0- 5.7 1.7---- 0.0------------
1994-06-19 19.0 25.8 13.2 9.5 63.3- 4.0 2.7---- 0.0------------
1994-06-18 12.4 19.5 5.1 1.5 74.3- 5.0 2.0---- 3.1------------
1994-06-17 10.7 14.9 8.8 6.8 80.5- 6.0 1.3---- 0.9------------
1994-06-16 12.6 16.5 6.7 2.9 70.8- 5.0 1.7---- 2.2------------
344.4 ms

 

Źródłem pochodzenia danych jest Instytut Meteorologii i Gospodarki Wodnej – Państwowy Instytut Badawczy. Dane Instytutu Meteorologii i Gospodarki Wodnej – Państwowego Instytutu Badawczego zostały przetworzone.

Dane źródłowe można odnaleźć na stronie https://dane.imgw.pl